Time;durP1;ratioP1;P1;durP2;ratioP2;P2;SDS_P1;SDS_P2;PMS_P1;PMS_P2;Temp;Humidity;BMP_temperature;BMP_pressure;BME280_temperature;BME280_humidity;BME280_pressure;Samples;Min_cycle;Max_cycle;Signal;HPM_P1;HPM_P2
2021/01/09 00:00:33;;;;;;;12.68;9.05;;;7.50;99.90;;;;;;4973801;28;20193;-80
2021/01/09 00:02:59;;;;;;;9.77;8.20;;;7.50;99.90;;;;;;4974438;28;20204;-80
2021/01/09 00:05:25;;;;;;;15.20;9.45;;;7.50;99.90;;;;;;4974431;28;20229;-80
2021/01/09 00:07:51;;;;;;;11.05;8.93;;;7.60;99.90;;;;;;4974290;28;20198;-79
2021/01/09 00:10:17;;;;;;;9.85;8.10;;;7.60;99.90;;;;;;4974345;28;20232;-80
2021/01/09 00:12:45;;;;;;;11.45;9.05;;;7.60;99.90;;;;;;4974193;28;20205;-80
2021/01/09 00:15:12;;;;;;;12.48;9.82;;;7.60;99.90;;;;;;4974419;28;20256;-80
2021/01/09 00:17:38;;;;;;;9.20;8.23;;;7.50;99.90;;;;;;4974239;28;20202;-80
2021/01/09 00:20:07;;;;;;;10.93;8.55;;;7.40;99.90;;;;;;4974187;28;20213;-80
2021/01/09 00:22:34;;;;;;;12.23;10.13;;;7.40;99.90;;;;;;4974486;28;20198;-80
2021/01/09 00:25:01;;;;;;;13.85;9.55;;;7.50;99.90;;;;;;4974235;28;20225;-80
2021/01/09 00:27:27;;;;;;;16.98;9.85;;;7.40;99.90;;;;;;4974240;28;20197;-80
2021/01/09 00:29:54;;;;;;;13.77;10.50;;;7.50;99.90;;;;;;4974297;28;20198;-80
2021/01/09 00:32:20;;;;;;;10.93;8.48;;;7.50;99.90;;;;;;4974171;28;20193;-80
2021/01/09 00:34:47;;;;;;;11.80;10.20;;;7.40;99.90;;;;;;4974165;28;20209;-79
2021/01/09 00:37:13;;;;;;;13.32;9.30;;;7.40;99.90;;;;;;4974223;28;20208;-80
2021/01/09 00:39:39;;;;;;;11.38;9.77;;;7.40;99.90;;;;;;4973866;28;20194;-79
2021/01/09 00:42:06;;;;;;;14.57;10.27;;;7.40;99.90;;;;;;4974178;28;20202;-80
2021/01/09 00:44:32;;;;;;;10.02;9.00;;;7.40;99.90;;;;;;4973942;28;20229;-80
2021/01/09 00:46:59;;;;;;;14.98;9.50;;;7.40;99.90;;;;;;4973852;28;20229;-80
2021/01/09 00:49:26;;;;;;;14.70;10.00;;;7.50;99.90;;;;;;4973883;28;20224;-80
2021/01/09 00:51:52;;;;;;;13.50;10.63;;;7.40;99.90;;;;;;4974054;28;20654;-80
2021/01/09 00:54:18;;;;;;;15.13;10.95;;;7.40;99.90;;;;;;4973967;28;20212;-80
2021/01/09 00:56:45;;;;;;;13.07;9.98;;;7.50;99.90;;;;;;4973874;28;20197;-80
2021/01/09 00:59:11;;;;;;;13.98;10.13;;;7.50;99.90;;;;;;4973812;28;20198;-80
2021/01/09 01:01:38;;;;;;;12.00;10.18;;;7.50;99.90;;;;;;4973879;28;20572;-80
2021/01/09 01:04:05;;;;;;;13.10;9.77;;;7.40;99.90;;;;;;4973964;28;20197;-80
2021/01/09 01:06:31;;;;;;;12.27;9.65;;;7.50;99.90;;;;;;4973885;28;20197;-80
2021/01/09 01:08:58;;;;;;;11.05;8.93;;;7.60;99.90;;;;;;4973910;28;20202;-80
2021/01/09 01:11:25;;;;;;;13.13;10.45;;;7.50;99.90;;;;;;4973724;28;20260;-80
2021/01/09 01:13:52;;;;;;;12.52;9.43;;;7.40;99.90;;;;;;4976819;28;20221;-79
2021/01/09 01:16:18;;;;;;;13.38;9.27;;;7.40;99.90;;;;;;4977213;28;20206;-80
2021/01/09 01:18:45;;;;;;;17.35;11.60;;;7.40;99.90;;;;;;4976963;28;20214;-80
2021/01/09 01:21:12;;;;;;;12.98;10.10;;;7.50;99.90;;;;;;4977186;28;20634;-80
2021/01/09 01:23:38;;;;;;;20.42;11.88;;;7.40;99.90;;;;;;4977213;28;20202;-80
2021/01/09 01:26:04;;;;;;;12.20;9.02;;;7.40;99.90;;;;;;4977021;28;20863;-79
2021/01/09 01:28:31;;;;;;;16.73;10.15;;;7.50;99.90;;;;;;4976983;28;20671;-80
2021/01/09 01:30:57;;;;;;;14.77;11.40;;;7.60;99.90;;;;;;4976827;28;20201;-79
2021/01/09 01:33:23;;;;;;;13.68;9.65;;;7.60;99.90;;;;;;4976894;28;20209;-80
2021/01/09 01:35:50;;;;;;;13.07;10.07;;;7.60;99.90;;;;;;4976514;28;20201;-80
2021/01/09 01:38:17;;;;;;;13.98;10.38;;;7.60;99.90;;;;;;4976710;28;20201;-80
2021/01/09 01:40:43;;;;;;;11.13;9.32;;;7.70;99.90;;;;;;4976694;28;20229;-80
2021/01/09 01:43:10;;;;;;;9.13;8.23;;;7.70;99.90;;;;;;4976758;28;20197;-80
2021/01/09 01:45:37;;;;;;;16.77;10.00;;;7.70;99.90;;;;;;4976547;28;20233;-80
2021/01/09 01:48:05;;;;;;;12.93;10.35;;;7.60;99.90;;;;;;4976597;28;20668;-80
2021/01/09 01:50:31;;;;;;;10.20;8.65;;;7.60;99.90;;;;;;4976401;28;20193;-80
2021/01/09 01:52:58;;;;;;;13.27;9.77;;;7.60;99.90;;;;;;4976499;28;20202;-80
2021/01/09 01:55:25;;;;;;;15.00;11.43;;;7.50;99.90;;;;;;4976591;28;20200;-80
2021/01/09 01:57:51;;;;;;;11.77;8.90;;;7.50;99.90;;;;;;4976403;28;20209;-80
2021/01/09 02:00:21;;;;;;;12.10;8.43;;;7.50;99.90;;;;;;4976299;28;20205;-80
2021/01/09 02:02:48;;;;;;;10.80;9.05;;;7.50;99.90;;;;;;4976275;28;20308;-79
2021/01/09 02:05:14;;;;;;;10.38;8.85;;;7.50;99.90;;;;;;4976352;28;20232;-80
2021/01/09 02:07:43;;;;;;;17.60;9.38;;;7.50;99.90;;;;;;4976292;28;20201;-80
2021/01/09 02:10:10;;;;;;;14.30;10.13;;;7.60;99.90;;;;;;4976184;28;20197;-80
2021/01/09 02:12:43;;;;;;;12.05;9.75;;;7.60;99.90;;;;;;4976024;28;20201;-80
2021/01/09 02:15:11;;;;;;;11.70;8.57;;;7.60;99.90;;;;;;4976121;28;20194;-80
2021/01/09 02:17:39;;;;;;;12.30;9.38;;;7.50;99.90;;;;;;4975804;28;20202;-80
2021/01/09 02:20:08;;;;;;;11.25;8.95;;;7.50;99.90;;;;;;4976233;28;20264;-80
2021/01/09 02:22:41;;;;;;;15.70;9.07;;;7.40;99.90;;;;;;4975670;28;20206;-80
2021/01/09 02:25:08;;;;;;;12.85;10.82;;;7.40;99.90;;;;;;4975977;28;20222;-80
2021/01/09 02:27:35;;;;;;;13.82;10.30;;;7.30;99.90;;;;;;4975842;28;20197;-80
2021/01/09 02:30:07;;;;;;;18.63;11.85;;;7.30;99.90;;;;;;4975898;28;20201;-80
2021/01/09 02:32:41;;;;;;;17.83;12.45;;;7.30;99.90;;;;;;4976013;28;20577;-80
2021/01/09 02:35:08;;;;;;;17.02;11.20;;;7.30;99.90;;;;;;4975769;28;20265;-80
2021/01/09 02:37:35;;;;;;;15.80;12.23;;;7.30;99.90;;;;;;4975586;28;20664;-79
2021/01/09 02:40:04;;;;;;;18.60;12.27;;;7.30;99.90;;;;;;4975645;28;20202;-80
2021/01/09 02:42:31;;;;;;;20.38;12.52;;;7.30;99.90;;;;;;4975694;28;20654;-80
2021/01/09 02:44:59;;;;;;;22.63;12.35;;;7.30;99.90;;;;;;4975323;28;20217;-80
2021/01/09 02:47:26;;;;;;;18.30;12.95;;;7.40;99.90;;;;;;4975470;28;20225;-80
2021/01/09 02:49:52;;;;;;;14.40;10.65;;;7.50;99.90;;;;;;4975373;28;20563;-80
2021/01/09 02:52:18;;;;;;;15.32;11.27;;;7.40;99.90;;;;;;4975348;28;20229;-80
2021/01/09 02:54:44;;;;;;;15.00;10.15;;;7.40;99.90;;;;;;4975523;28;20202;-80
2021/01/09 02:57:11;;;;;;;19.33;10.48;;;7.40;99.90;;;;;;4975127;28;20266;-79
2021/01/09 02:59:38;;;;;;;16.17;10.98;;;7.40;99.90;;;;;;4975173;28;20205;-80
2021/01/09 03:02:04;;;;;;;18.38;12.15;;;7.30;99.90;;;;;;4975261;28;20198;-80
2021/01/09 03:04:30;;;;;;;16.13;11.73;;;7.30;99.90;;;;;;4975288;28;20226;-80
2021/01/09 03:06:56;;;;;;;19.30;11.88;;;7.30;99.90;;;;;;4975183;28;20202;-79
2021/01/09 03:09:23;;;;;;;18.58;12.63;;;7.20;99.90;;;;;;4975183;28;20225;-80
2021/01/09 03:11:49;;;;;;;16.60;12.23;;;7.20;99.90;;;;;;4974977;28;20198;-80
2021/01/09 03:14:16;;;;;;;25.25;13.35;;;7.20;99.90;;;;;;4975058;28;20201;-80
2021/01/09 03:16:42;;;;;;;16.70;12.30;;;7.20;99.90;;;;;;4974862;28;20558;-80
2021/01/09 03:19:09;;;;;;;20.73;12.63;;;7.20;99.90;;;;;;4974914;28;20548;-79
2021/01/09 03:21:35;;;;;;;17.83;12.50;;;7.20;99.90;;;;;;4974953;28;20275;-80
2021/01/09 03:24:01;;;;;;;23.58;12.73;;;7.20;99.90;;;;;;4974938;28;20205;-80
2021/01/09 03:26:27;;;;;;;17.83;13.50;;;7.10;99.90;;;;;;4974719;28;20222;-80
2021/01/09 03:28:55;;;;;;;19.77;12.43;;;7.20;99.90;;;;;;4974993;28;21315;-80
2021/01/09 03:31:24;;;;;;;21.63;12.40;;;7.20;99.90;;;;;;4974785;28;20198;-80
2021/01/09 03:33:50;;;;;;;19.65;13.50;;;7.10;99.90;;;;;;4974700;28;20762;-80
2021/01/09 03:36:16;;;;;;;19.67;12.85;;;7.00;99.90;;;;;;4974009;28;20259;-80
2021/01/09 03:38:43;;;;;;;20.33;13.70;;;7.10;99.90;;;;;;4974718;28;20292;-80
2021/01/09 03:41:09;;;;;;;19.08;12.88;;;7.10;99.90;;;;;;4974673;28;20194;-80
2021/01/09 03:43:35;;;;;;;15.25;11.35;;;7.20;99.90;;;;;;4974531;28;20271;-80
2021/01/09 03:46:01;;;;;;;13.95;10.57;;;7.20;99.90;;;;;;4974333;28;20248;-80
2021/01/09 03:48:28;;;;;;;20.30;12.52;;;7.30;99.90;;;;;;4974507;28;20221;-80
2021/01/09 03:50:55;;;;;;;17.90;12.07;;;7.20;99.90;;;;;;4974575;28;20258;-80
2021/01/09 03:53:21;;;;;;;18.50;11.13;;;7.20;99.90;;;;;;4974462;28;20197;-80
2021/01/09 03:55:47;;;;;;;15.27;10.43;;;7.20;99.90;;;;;;4974457;28;20221;-80
2021/01/09 03:58:14;;;;;;;16.10;11.90;;;7.20;99.90;;;;;;4974439;28;20204;-80
2021/01/09 04:00:40;;;;;;;13.63;9.82;;;7.20;99.90;;;;;;4974399;28;20197;-80
2021/01/09 04:03:06;;;;;;;19.75;11.65;;;7.20;99.90;;;;;;4974364;28;20198;-80
2021/01/09 04:05:33;;;;;;;19.48;11.68;;;7.20;99.90;;;;;;4974251;28;20225;-80
2021/01/09 04:08:00;;;;;;;16.33;11.07;;;7.20;99.90;;;;;;4974292;28;20194;-80
2021/01/09 04:10:26;;;;;;;16.00;10.60;;;7.30;99.90;;;;;;4974283;28;20202;-80
2021/01/09 04:12:52;;;;;;;14.60;9.73;;;7.30;99.90;;;;;;4974346;28;20193;-80
2021/01/09 04:15:18;;;;;;;15.02;10.88;;;7.30;99.90;;;;;;4974303;28;20735;-80
2021/01/09 04:17:45;;;;;;;10.82;8.55;;;7.20;99.90;;;;;;4974057;28;20213;-79
2021/01/09 04:20:11;;;;;;;14.68;10.63;;;7.20;99.90;;;;;;4974257;28;20828;-80
2021/01/09 04:22:38;;;;;;;13.43;9.77;;;7.20;99.90;;;;;;4974058;28;20205;-80
2021/01/09 04:25:06;;;;;;;13.23;9.32;;;7.30;99.90;;;;;;4974150;28;20229;-80
2021/01/09 04:27:32;;;;;;;15.25;9.93;;;7.30;99.90;;;;;;4974264;28;20540;-80
2021/01/09 04:29:58;;;;;;;14.68;8.77;;;7.20;99.90;;;;;;4973971;28;20202;-80
2021/01/09 04:32:25;;;;;;;13.70;9.10;;;7.30;99.90;;;;;;4974300;28;20202;-80
2021/01/09 04:34:51;;;;;;;19.30;11.07;;;7.30;99.90;;;;;;4974254;28;20197;-80
2021/01/09 04:37:18;;;;;;;13.98;9.32;;;7.30;99.90;;;;;;4974156;28;20260;-80
2021/01/09 04:39:45;;;;;;;19.52;10.38;;;7.30;99.90;;;;;;4974002;28;20198;-80
2021/01/09 04:42:12;;;;;;;20.20;10.93;;;7.30;99.90;;;;;;4974025;28;20194;-80
2021/01/09 04:44:39;;;;;;;12.98;10.90;;;7.30;99.90;;;;;;4974017;28;20220;-80
2021/01/09 04:47:07;;;;;;;20.35;11.70;;;7.30;99.90;;;;;;4976079;28;20229;-80
2021/01/09 04:49:34;;;;;;;17.70;10.82;;;7.30;99.90;;;;;;4977741;28;20222;-80
2021/01/09 04:52:03;;;;;;;16.63;12.32;;;7.20;99.90;;;;;;4977611;28;20198;-80
2021/01/09 04:54:30;;;;;;;13.90;9.60;;;7.10;99.90;;;;;;4977442;28;20208;-80
2021/01/09 04:56:58;;;;;;;14.43;9.65;;;7.10;99.90;;;;;;4977428;28;20205;-80
2021/01/09 04:59:25;;;;;;;16.70;10.75;;;7.00;99.90;;;;;;4977463;28;20720;-80
2021/01/09 05:01:52;;;;;;;21.25;11.85;;;7.00;99.90;;;;;;4977576;28;20197;-80
2021/01/09 05:04:20;;;;;;;20.35;12.48;;;7.10;99.90;;;;;;4977452;28;20208;-80
2021/01/09 05:06:47;;;;;;;15.18;9.95;;;7.10;99.90;;;;;;4977311;28;20229;-79
2021/01/09 05:09:15;;;;;;;17.48;9.65;;;7.20;99.90;;;;;;4977338;28;20204;-80
2021/01/09 05:11:42;;;;;;;12.85;10.07;;;7.20;99.90;;;;;;4977140;28;20202;-80
2021/01/09 05:14:10;;;;;;;14.95;10.23;;;7.30;99.90;;;;;;4977224;28;20292;-80
2021/01/09 05:16:38;;;;;;;14.35;10.10;;;7.30;99.90;;;;;;4977086;28;20229;-80
2021/01/09 05:19:05;;;;;;;17.20;10.48;;;7.20;99.90;;;;;;4977099;28;20218;-80
2021/01/09 05:21:34;;;;;;;12.18;9.50;;;7.20;99.90;;;;;;4977242;28;20202;-79
2021/01/09 05:24:02;;;;;;;14.73;10.60;;;7.10;99.90;;;;;;4977151;28;20209;-80
2021/01/09 05:26:29;;;;;;;16.45;10.35;;;7.00;99.90;;;;;;4977095;28;20256;-80
2021/01/09 05:28:57;;;;;;;16.80;10.80;;;7.00;99.90;;;;;;4976948;28;20204;-80
2021/01/09 05:31:26;;;;;;;13.45;9.38;;;7.00;99.90;;;;;;4977054;28;20205;-80
2021/01/09 05:33:53;;;;;;;15.00;10.65;;;7.00;99.90;;;;;;4977053;28;20615;-80
2021/01/09 05:36:20;;;;;;;14.43;10.95;;;7.00;99.90;;;;;;4977116;28;20205;-80
2021/01/09 05:38:48;;;;;;;16.90;11.35;;;7.00;99.90;;;;;;4976670;28;20198;-80
2021/01/09 05:41:15;;;;;;;16.67;10.45;;;7.10;99.90;;;;;;4976723;28;20201;-80
2021/01/09 05:43:45;;;;;;;17.80;10.93;;;7.10;99.90;;;;;;4976709;28;20556;-80
2021/01/09 05:46:12;;;;;;;14.45;10.13;;;7.10;99.90;;;;;;4976236;28;20240;-80
2021/01/09 05:48:42;;;;;;;15.50;10.98;;;7.20;99.90;;;;;;4976697;28;20224;-80
2021/01/09 05:51:12;;;;;;;16.35;9.98;;;7.20;99.90;;;;;;4976506;28;20198;-80
2021/01/09 05:53:40;;;;;;;15.07;10.18;;;7.20;99.90;;;;;;4976732;28;20206;-79
2021/01/09 05:56:07;;;;;;;13.23;9.45;;;7.20;99.90;;;;;;4976559;28;20204;-80
2021/01/09 05:58:35;;;;;;;12.70;9.75;;;7.20;99.90;;;;;;4975594;28;20193;-80
2021/01/09 06:01:06;;;;;;;14.93;9.40;;;7.10;99.90;;;;;;4976502;28;20214;-80
2021/01/09 06:03:43;;;;;;;18.33;10.02;;;7.20;99.90;;;;;;4976486;28;20249;-80
2021/01/09 06:06:28;;;;;;;15.35;9.73;;;7.10;99.90;;;;;;4976213;28;20221;-79
2021/01/09 06:08:59;;;;;;;15.80;9.57;;;7.00;99.90;;;;;;4976331;28;20558;-80
2021/01/09 06:11:31;;;;;;;14.55;9.98;;;6.90;99.90;;;;;;4976410;28;20209;-80
2021/01/09 06:14:00;;;;;;;16.17;10.38;;;6.80;99.90;;;;;;4976221;28;20206;-80
2021/01/09 06:16:33;;;;;;;14.93;10.60;;;6.80;99.90;;;;;;4976002;28;20273;-80
2021/01/09 06:19:01;;;;;;;17.52;11.25;;;6.80;99.90;;;;;;4976051;28;20568;-80
2021/01/09 06:21:29;;;;;;;19.63;12.45;;;6.80;99.90;;;;;;4975960;28;20198;-80
2021/01/09 06:23:57;;;;;;;13.98;10.50;;;6.80;99.90;;;;;;4976269;28;20558;-79
2021/01/09 06:26:24;;;;;;;16.30;11.32;;;6.90;99.90;;;;;;4976045;28;20225;-80
2021/01/09 06:28:55;;;;;;;18.40;12.05;;;7.00;99.90;;;;;;4975831;28;20202;-80
2021/01/09 06:31:23;;;;;;;15.73;10.55;;;6.90;99.90;;;;;;4976016;28;20202;-80
2021/01/09 06:33:52;;;;;;;17.15;10.85;;;7.00;99.90;;;;;;4975808;28;20559;-80
2021/01/09 06:36:19;;;;;;;13.88;10.48;;;7.00;99.90;;;;;;4975835;28;20205;-80
2021/01/09 06:38:48;;;;;;;13.70;9.90;;;7.10;99.90;;;;;;4975757;28;20210;-80
2021/01/09 06:41:16;;;;;;;14.25;9.93;;;7.00;99.90;;;;;;4975543;28;20198;-79
2021/01/09 06:43:44;;;;;;;16.88;11.45;;;7.00;99.90;;;;;;4975857;28;20202;-80
2021/01/09 06:46:12;;;;;;;16.10;10.95;;;7.00;99.90;;;;;;4975373;28;20253;-80
2021/01/09 06:48:44;;;;;;;15.25;10.43;;;7.10;99.90;;;;;;4975540;28;20217;-80
2021/01/09 06:51:40;;;;;;;15.75;10.35;;;7.10;99.90;;;;;;4975522;28;20202;-80
2021/01/09 06:54:29;;;;;;;14.00;10.98;;;7.20;99.90;;;;;;4975315;28;20232;-80
2021/01/09 06:57:17;;;;;;;14.02;9.60;;;7.10;99.90;;;;;;4975404;28;20252;-80
2021/01/09 06:59:44;;;;;;;13.10;8.55;;;7.10;99.90;;;;;;4969506;28;20563;-80
2021/01/09 07:02:19;;;;;;;12.30;8.80;;;7.20;99.90;;;;;;4975312;28;20197;-80
2021/01/09 07:04:56;;;;;;;14.63;10.15;;;7.20;99.90;;;;;;4975278;28;20644;-80
2021/01/09 07:07:33;;;;;;;14.30;10.38;;;7.30;99.90;;;;;;4958005;28;20197;-80
2021/01/09 07:10:02;;;;;;;15.15;10.75;;;7.30;99.90;;;;;;4975030;28;20256;-80
2021/01/09 07:12:30;;;;;;;18.92;11.55;;;7.30;99.90;;;;;;4975108;28;20224;-80
2021/01/09 07:15:01;;;;;;;17.23;12.00;;;7.30;99.90;;;;;;4975074;28;20202;-79
2021/01/09 07:17:32;;;;;;;17.63;11.52;;;7.30;99.90;;;;;;4974930;28;20202;-80
2021/01/09 07:20:00;;;;;;;15.40;11.15;;;7.30;99.90;;;;;;4974962;28;20252;-80
2021/01/09 07:22:29;;;;;;;18.05;12.23;;;7.40;99.90;;;;;;4975097;28;20329;-80
2021/01/09 07:24:57;;;;;;;16.05;12.52;;;7.40;99.90;;;;;;4974770;28;20198;-79
2021/01/09 07:27:34;;;;;;;22.70;12.43;;;7.30;99.90;;;;;;4974756;28;20205;-81
2021/01/09 07:30:07;;;;;;;19.45;11.90;;;7.30;99.90;;;;;;4974772;28;20209;-81
2021/01/09 07:32:40;;;;;;;17.65;11.73;;;7.30;99.90;;;;;;4974793;28;20193;-81
2021/01/09 07:35:07;;;;;;;20.27;11.90;;;7.30;99.90;;;;;;4974914;28;20206;-81
2021/01/09 07:37:43;;;;;;;16.15;11.32;;;7.40;99.90;;;;;;4974624;28;20672;-81
2021/01/09 07:40:14;;;;;;;15.90;12.10;;;7.40;99.90;;;;;;4974791;28;20284;-81
2021/01/09 07:42:41;;;;;;;17.50;11.43;;;7.40;99.90;;;;;;4974790;28;20197;-81
2021/01/09 07:45:09;;;;;;;15.77;10.85;;;7.40;99.90;;;;;;4974575;28;20649;-81
2021/01/09 07:47:41;;;;;;;17.77;11.82;;;7.40;99.90;;;;;;4974512;28;20254;-81
2021/01/09 07:50:10;;;;;;;14.10;11.63;;;7.30;99.90;;;;;;4974745;28;20205;-81
2021/01/09 07:52:37;;;;;;;16.45;10.80;;;7.30;99.90;;;;;;4974532;28;20248;-81
2021/01/09 07:55:06;;;;;;;16.83;11.25;;;7.30;99.90;;;;;;4974525;28;20201;-81
2021/01/09 07:57:32;;;;;;;16.08;11.68;;;7.30;99.90;;;;;;4974580;28;20205;-81
2021/01/09 08:00:08;;;;;;;20.70;11.60;;;7.30;99.90;;;;;;4974369;28;20197;-81
2021/01/09 08:02:35;;;;;;;17.48;11.27;;;7.30;99.90;;;;;;4974589;28;20197;-81
2021/01/09 08:05:06;;;;;;;16.48;11.45;;;7.40;99.90;;;;;;4974398;28;20228;-80
2021/01/09 08:07:33;;;;;;;20.48;12.95;;;7.50;99.90;;;;;;4974489;28;20201;-81
2021/01/09 08:09:59;;;;;;;17.95;12.27;;;7.50;99.90;;;;;;4974439;28;20650;-81
2021/01/09 08:12:27;;;;;;;20.40;12.77;;;7.50;99.90;;;;;;4974400;28;20193;-81
2021/01/09 08:14:57;;;;;;;18.73;13.30;;;7.60;99.90;;;;;;4974191;28;20225;-80
2021/01/09 08:17:24;;;;;;;17.05;11.80;;;7.50;99.90;;;;;;4973986;28;20708;-81
2021/01/09 08:19:50;;;;;;;19.60;12.48;;;7.50;99.90;;;;;;4974248;28;20205;-81
2021/01/09 08:22:16;;;;;;;19.30;11.80;;;7.50;99.90;;;;;;4981834;28;20190;-81
2021/01/09 08:24:43;;;;;;;15.55;11.57;;;7.40;99.90;;;;;;4982040;28;20190;-80
2021/01/09 08:27:09;;;;;;;14.23;10.35;;;7.30;99.90;;;;;;4981528;28;20197;-81
2021/01/09 08:29:36;;;;;;;16.25;11.85;;;7.30;99.90;;;;;;4978037;28;20248;-81
2021/01/09 08:32:12;;;;;;;15.70;11.13;;;7.30;99.90;;;;;;4978190;28;20229;-81
2021/01/09 08:34:38;;;;;;;18.92;12.00;;;7.20;99.90;;;;;;4978067;28;20205;-81
2021/01/09 08:37:04;;;;;;;18.13;11.60;;;7.10;99.90;;;;;;4977908;28;20201;-81
2021/01/09 08:39:34;;;;;;;25.23;12.93;;;7.10;99.90;;;;;;4978116;28;20548;-81
2021/01/09 08:42:01;;;;;;;16.80;11.00;;;7.10;99.90;;;;;;4977946;28;20337;-81
2021/01/09 08:44:27;;;;;;;18.73;12.35;;;7.10;99.90;;;;;;4977961;28;20910;-80
2021/01/09 08:46:55;;;;;;;21.83;13.70;;;7.00;99.90;;;;;;4994089;28;20293;-81
2021/01/09 08:49:24;;;;;;;25.50;15.10;;;7.00;99.90;;;;;;4995157;28;20570;-80
2021/01/09 08:51:58;;;;;;;26.08;13.18;;;7.00;99.90;;;;;;4986737;28;20644;-81
2021/01/09 08:54:28;;;;;;;26.23;14.98;;;7.00;99.90;;;;;;4996925;28;20197;-80
2021/01/09 08:56:55;;;;;;;27.45;15.57;;;7.10;99.90;;;;;;4996779;28;20193;-80
2021/01/09 08:59:22;;;;;;;27.38;15.93;;;7.10;99.90;;;;;;4996893;28;20196;-81
2021/01/09 09:01:51;;;;;;;31.35;16.70;;;7.20;99.90;;;;;;4997038;28;20243;-81
2021/01/09 09:04:20;;;;;;;38.53;18.20;;;7.10;99.90;;;;;;4984649;28;20204;-81
2021/01/09 09:06:54;;;;;;;29.73;18.02;;;7.10;99.90;;;;;;4975841;28;20313;-81
2021/01/09 09:09:23;;;;;;;36.95;17.95;;;7.10;99.90;;;;;;4976833;28;20197;-81
2021/01/09 09:11:51;;;;;;;30.48;18.77;;;7.20;99.90;;;;;;4977415;28;20252;-81
2021/01/09 09:14:17;;;;;;;28.80;17.13;;;7.10;99.90;;;;;;4980151;28;20200;-80
2021/01/09 09:16:44;;;;;;;34.03;18.48;;;7.20;99.90;;;;;;4988444;28;20644;-81
2021/01/09 09:19:12;;;;;;;32.08;18.75;;;7.20;99.90;;;;;;4996296;28;20603;-81
2021/01/09 09:21:42;;;;;;;36.47;18.35;;;7.30;99.90;;;;;;4995617;28;20196;-81
2021/01/09 09:24:08;;;;;;;33.20;18.67;;;7.30;99.90;;;;;;4995983;28;20193;-81
2021/01/09 09:26:35;;;;;;;39.28;20.95;;;7.30;99.90;;;;;;4996213;28;20223;-81
2021/01/09 09:29:01;;;;;;;36.42;19.98;;;7.40;99.90;;;;;;4996288;28;20626;-81
2021/01/09 09:31:30;;;;;;;38.75;21.15;;;7.40;99.90;;;;;;4996289;28;20204;-82
2021/01/09 09:34:14;;;;;;;34.78;20.20;;;7.50;99.90;;;;;;4995082;28;20251;-82
2021/01/09 09:36:58;;;;;;;42.72;20.73;;;7.40;99.90;;;;;;4995826;28;20680;-81
2021/01/09 09:39:26;;;;;;;36.88;21.98;;;7.50;99.90;;;;;;4996236;28;20236;-81
2021/01/09 09:41:56;;;;;;;41.08;23.85;;;7.40;99.90;;;;;;4996036;28;20204;-81
2021/01/09 09:44:34;;;;;;;44.53;23.15;;;7.30;99.90;;;;;;4996204;28;20201;-81
2021/01/09 09:47:00;;;;;;;46.40;23.33;;;7.30;99.90;;;;;;4995849;28;20236;-82
2021/01/09 09:49:27;;;;;;;45.72;23.35;;;7.40;99.90;;;;;;4996052;28;20606;-82
2021/01/09 09:51:54;;;;;;;38.28;23.25;;;7.40;99.90;;;;;;4977647;28;20280;-83
2021/01/09 09:54:31;;;;;;;43.33;24.10;;;7.50;99.90;;;;;;4976545;28;20201;-83
2021/01/09 09:56:58;;;;;;;50.10;25.88;;;7.60;99.90;;;;;;4981591;28;20193;-84
2021/01/09 09:59:30;;;;;;;54.90;28.52;;;7.50;99.90;;;;;;4985921;28;20193;-83
2021/01/09 10:01:58;;;;;;;47.22;25.25;;;7.40;99.90;;;;;;4989100;28;20287;-83
2021/01/09 10:04:24;;;;;;;51.00;27.25;;;7.50;99.90;;;;;;4995787;28;20201;-83
2021/01/09 10:06:51;;;;;;;53.08;25.90;;;7.50;99.90;;;;;;4992230;28;20228;-83
2021/01/09 10:09:20;;;;;;;47.78;25.45;;;7.50;99.90;;;;;;4995563;28;20688;-83
2021/01/09 10:11:47;;;;;;;46.90;24.58;;;7.50;99.90;;;;;;4995936;28;20219;-83
2021/01/09 10:14:14;;;;;;;55.72;27.27;;;7.40;99.90;;;;;;4993423;28;20240;-83
2021/01/09 10:16:40;;;;;;;59.80;28.55;;;7.30;99.90;;;;;;4975973;28;20218;-84
2021/01/09 10:19:10;;;;;;;55.65;26.67;;;7.20;99.90;;;;;;4983897;28;20209;-81
2021/01/09 10:21:37;;;;;;;54.97;27.52;;;7.20;99.90;;;;;;4994333;28;20203;-81
2021/01/09 10:24:04;;;;;;;53.17;24.92;;;7.20;99.90;;;;;;4995283;28;20196;-81
2021/01/09 10:26:32;;;;;;;53.53;26.15;;;7.30;99.90;;;;;;4995080;28;20225;-81
2021/01/09 10:29:00;;;;;;;63.17;28.70;;;7.30;99.90;;;;;;4995100;28;20678;-81
2021/01/09 10:31:31;;;;;;;69.00;32.17;;;7.40;99.90;;;;;;4995183;28;20201;-83
2021/01/09 10:33:57;;;;;;;64.93;29.75;;;7.40;99.90;;;;;;4995121;28;20201;-82
2021/01/09 10:36:25;;;;;;;57.85;27.70;;;7.40;99.90;;;;;;4992007;28;20193;-81
2021/01/09 10:38:51;;;;;;;51.35;28.85;;;7.40;99.90;;;;;;4975676;28;20534;-82
2021/01/09 10:41:17;;;;;;;51.38;25.52;;;7.40;99.90;;;;;;4975445;28;20193;-80
2021/01/09 10:43:45;;;;;;;52.83;27.23;;;7.40;99.90;;;;;;4974877;28;20684;-80
2021/01/09 10:46:11;;;;;;;49.38;24.40;;;7.50;99.90;;;;;;4973383;28;20248;-80
2021/01/09 10:48:37;;;;;;;46.92;26.05;;;7.60;99.90;;;;;;4975038;28;20570;-79
2021/01/09 10:51:03;;;;;;;53.13;27.35;;;7.60;99.90;;;;;;4974738;28;20225;-79
2021/01/09 10:53:30;;;;;;;52.70;25.27;;;7.50;99.90;;;;;;4976541;28;20200;-81
2021/01/09 10:55:56;;;;;;;53.13;24.40;;;7.60;99.90;;;;;;4975459;28;20198;-81
2021/01/09 10:58:22;;;;;;;44.08;25.02;;;7.60;99.90;;;;;;4975276;28;20193;-81
2021/01/09 11:00:50;;;;;;;52.60;25.75;;;7.60;99.90;;;;;;4975346;28;20197;-80
2021/01/09 11:03:16;;;;;;;42.05;23.77;;;7.40;99.90;;;;;;4975219;28;20201;-81
2021/01/09 11:05:44;;;;;;;45.58;25.05;;;7.40;99.90;;;;;;4975354;28;20680;-81
2021/01/09 11:08:10;;;;;;;43.38;23.55;;;7.40;99.90;;;;;;4975256;28;20205;-80
2021/01/09 11:10:36;;;;;;;39.42;22.23;;;7.40;99.90;;;;;;4975209;28;20285;-81
2021/01/09 11:13:03;;;;;;;37.30;21.40;;;7.30;99.90;;;;;;4975121;28;20204;-81
2021/01/09 11:15:29;;;;;;;33.53;20.35;;;7.30;99.90;;;;;;4975066;28;20531;-80
2021/01/09 11:17:56;;;;;;;33.75;18.92;;;7.30;99.90;;;;;;4975113;28;20213;-81
2021/01/09 11:20:22;;;;;;;29.67;19.45;;;7.40;99.90;;;;;;4974946;28;20205;-81
2021/01/09 11:22:48;;;;;;;31.75;19.10;;;7.40;99.90;;;;;;4974868;28;20204;-81
2021/01/09 11:25:15;;;;;;;38.92;18.92;;;7.50;99.90;;;;;;4974911;28;20204;-81
2021/01/09 11:27:41;;;;;;;28.42;17.70;;;7.50;99.90;;;;;;4974768;28;20202;-80
2021/01/09 11:30:08;;;;;;;32.03;17.83;;;7.50;99.90;;;;;;4974991;28;20213;-80
2021/01/09 11:32:35;;;;;;;29.65;18.38;;;7.60;99.90;;;;;;4974899;28;20664;-80
2021/01/09 11:35:02;;;;;;;29.15;18.02;;;7.60;99.90;;;;;;4974833;28;20677;-81
2021/01/09 11:37:28;;;;;;;31.35;18.73;;;7.50;99.90;;;;;;4974684;28;20202;-80
2021/01/09 11:39:55;;;;;;;31.77;18.20;;;7.50;99.90;;;;;;4974343;28;20194;-80
2021/01/09 11:42:22;;;;;;;28.30;17.88;;;7.40;99.90;;;;;;4974845;28;20198;-80
2021/01/09 11:44:48;;;;;;;34.15;19.95;;;7.20;99.90;;;;;;4974343;28;20202;-80
2021/01/09 11:47:15;;;;;;;29.60;18.42;;;7.40;99.90;;;;;;4974382;28;20225;-80
2021/01/09 11:49:41;;;;;;;29.35;18.33;;;7.40;99.90;;;;;;4974534;28;20201;-81
2021/01/09 11:52:08;;;;;;;25.30;16.00;;;7.50;99.90;;;;;;4974383;28;20551;-80
2021/01/09 11:54:35;;;;;;;23.67;15.00;;;7.60;99.90;;;;;;4973941;28;20205;-81
2021/01/09 11:57:01;;;;;;;23.20;16.02;;;7.60;99.90;;;;;;4972819;28;20620;-81
2021/01/09 11:59:27;;;;;;;27.50;17.17;;;7.50;99.90;;;;;;4974382;28;20201;-80
2021/01/09 12:01:55;;;;;;;23.38;15.48;;;7.40;99.90;;;;;;4974505;28;20209;-80
2021/01/09 12:04:21;;;;;;;29.02;16.65;;;7.40;99.90;;;;;;4974596;28;20213;-80
2021/01/09 12:06:47;;;;;;;30.92;19.42;;;7.40;99.90;;;;;;4974354;28;20252;-81
2021/01/09 12:09:14;;;;;;;22.40;16.50;;;7.50;99.90;;;;;;4974280;28;20263;-81
2021/01/09 12:11:40;;;;;;;21.60;15.50;;;7.40;99.90;;;;;;4974434;28;20205;-81
2021/01/09 12:14:07;;;;;;;25.33;16.40;;;7.50;99.90;;;;;;4974371;28;20201;-81
2021/01/09 12:16:34;;;;;;;24.30;14.25;;;7.50;99.90;;;;;;4974111;28;20217;-80
2021/01/09 12:19:01;;;;;;;23.15;14.75;;;7.50;99.90;;;;;;4974134;28;20198;-86
2021/01/09 12:21:28;;;;;;;20.85;14.35;;;7.40;99.90;;;;;;4974728;28;20198;-86
2021/01/09 12:23:55;;;;;;;21.33;14.15;;;7.30;99.90;;;;;;4974725;28;20618;-86
2021/01/09 12:26:23;;;;;;;22.50;14.23;;;7.20;99.90;;;;;;4974375;28;20704;-87
2021/01/09 12:28:50;;;;;;;20.45;14.48;;;7.20;99.90;;;;;;4974602;28;20201;-86
2021/01/09 12:31:16;;;;;;;21.92;14.88;;;7.20;99.90;;;;;;4974602;28;20247;-86
2021/01/09 12:33:42;;;;;;;29.00;17.08;;;7.30;99.90;;;;;;4974517;28;20202;-87
2021/01/09 12:36:09;;;;;;;25.50;14.80;;;7.30;99.90;;;;;;4974484;28;20664;-86
2021/01/09 12:38:37;;;;;;;28.23;15.45;;;7.40;99.90;;;;;;4974544;28;20194;-85
2021/01/09 12:41:03;;;;;;;25.17;16.85;;;7.40;99.90;;;;;;4974568;28;20198;-86